Latest Weather Observations for Mandurah

IDW60801

Issued at 1:33 pm WST Friday 29 July 2016 (issued every 30 minutes, with the page automatically refreshed every 10 minutes)

About weather observations | Map of weather stations | Latest weather observations for WA | Other Formats
Station Details ID: 009977 Name: MANDURAH Lat: -32.52 Lon: 115.71 Height: 3.0 m
Data from the previous 72 hours. | See also: Recent months at Mandurah
Date/Time
WST
Temp
°C
App
Temp
°C
Dew
Point
°C
Rel
Hum
%
Delta-T
°C
Wind Press
QNH
hPa
Press
MSL
hPa
Rain since
9am
mm
Dir  Spd
km/h
Gust
km/h
Spd
kts
Gust
kts
29/01:30pm 17.4 15.0 16.4 94 0.6 N 24 30 13 16 1010.3 1010.3 0.0
29/01:00pm 17.4 13.6 15.7 90 1.0 N 30 35 16 19 1010.8 1010.8 0.0
29/12:30pm 17.3 12.8 15.3 88 1.2 N 33 44 18 24 1011.3 1011.3 0.0
29/12:00pm 17.6 13.1 15.0 85 1.5 N 32 41 17 22 1011.9 1011.9 0.0
29/11:30am 16.9 12.8 14.9 88 1.2 N 30 35 16 19 1012.7 1012.7 0.0
29/11:00am 16.8 12.2 14.6 87 1.3 N 32 39 17 21 1013.0 1013.0 0.0
29/10:30am 16.7 11.6 13.2 80 2.0 N 32 39 17 21 1013.4 1013.4 0.0
29/10:00am 16.6 11.8 12.9 79 2.1 N 30 37 16 20 1013.7 1013.7 0.0
29/09:30am 16.1 12.2 12.1 77 2.2 N 24 30 13 16 1014.0 1014.0 0.0
29/09:00am 15.8 11.2 11.2 74 2.5 N 26 30 14 16 1014.2 1014.2 0.0
29/08:30am 15.5 11.4 11.3 76 2.3 NNE 24 28 13 15 1014.4 1014.4 0.0
29/08:00am 14.7 13.5 11.5 81 1.7 NNE 9 15 5 8 1014.9 1014.9 0.0
29/07:30am 14.5 12.9 11.5 82 1.6 NNE 11 15 6 8 1015.1 1015.1 0.0
29/07:00am 13.9 11.7 10.7 81 1.7 NNE 13 19 7 10 1015.2 1015.2 0.0
29/06:30am 14.1 12.5 10.3 78 2.0 NNE 9 11 5 6 1015.2 1015.2 0.0
29/06:00am 14.0 12.7 10.0 77 2.1 NE 7 9 4 5 1015.2 1015.2 0.0
29/05:30am 13.9 12.8 10.1 78 2.0 ENE 6 7 3 4 1015.3 1015.3 0.0
29/05:00am 13.3 12.6 10.1 81 1.6 ENE 4 6 2 3 1015.5 1015.5 0.0
29/04:30am 13.1 13.1 9.9 81 1.6 CALM 0 4 0 2 1015.8 1015.8 0.0
29/04:00am 13.2 12.9 10.2 82 1.5 ENE 2 4 1 2 1016.0 1016.0 0.0
29/03:30am 13.0 12.1 10.5 85 1.3 ENE 6 7 3 4 1016.2 1016.2 0.0
29/03:00am 12.3 12.2 10.7 90 0.8 ENE 2 6 1 3 1016.6 1016.6 0.0
29/02:30am 12.5 12.1 11.1 91 0.7 ENE 4 6 2 3 1017.0 1017.0 0.0
29/02:00am 12.2 11.9 11.3 94 0.5 ENE 4 6 2 3 1017.5 1017.5 0.0
29/01:30am 12.2 11.0 11.6 96 0.3 E 9 13 5 7 1017.2 1017.2 0.0
29/01:00am 13.1 12.8 12.6 97 0.3 SSE 6 7 3 4 1017.9 1017.9 0.0
29/12:30am 13.5 13.6 12.7 95 0.4 SSE 4 7 2 4 1018.4 1018.4 0.0
29/12:00am 13.6 13.2 12.3 92 0.7 SSE 6 7 3 4 1018.6 1018.6 0.0
 
Date/Time
WST
Temp
°C
App
Temp
°C
Dew
Point
°C
Rel
Hum
%
Delta-T
°C
Wind Press
QNH
hPa
Press
MSL
hPa
Rain since
9am
mm
Dir  Spd
km/h
Gust
km/h
Spd
kts
Gust
kts
28/11:30pm 13.7 13.6 12.1 90 0.9 SSE 4 6 2 3 1018.8 1018.8 0.0
28/11:00pm 13.9 14.1 11.8 87 1.1 SSE 2 4 1 2 1019.2 1019.2 0.0
28/10:30pm 14.3 14.2 12.2 87 1.1 ESE 4 6 2 3 1019.6 1019.6 0.0
28/10:00pm 14.4 13.9 12.1 86 1.2 ESE 6 9 3 5 1019.6 1019.6 0.0
28/09:30pm 15.1 14.8 12.6 85 1.4 SE 6 9 3 5 1019.8 1019.8 0.0
28/09:00pm 15.6 15.8 12.9 84 1.5 S 4 6 2 3 1020.2 1020.2 0.0
28/08:30pm 15.6 15.6 12.5 82 1.7 S 4 6 2 3 1020.2 1020.2 0.0
28/08:00pm 15.3 15.3 12.4 83 1.6 SW 4 6 2 3 1020.3 1020.3 0.0
28/07:30pm 15.3 15.6 12.1 81 1.7 SW 2 2 1 1 1020.2 1020.2 0.0
28/07:00pm 15.1 14.9 11.7 80 1.8 SW 4 4 2 2 1020.1 1020.1 0.0
28/06:30pm 16.2 16.3 11.4 73 2.6 SW 2 4 1 2 1020.0 1020.0 0.0
28/06:00pm 16.5 16.6 11.6 73 2.6 SW 2 4 1 2 1020.0 1020.0 0.0
28/05:30pm 17.1 16.5 11.6 70 3.0 SW 6 9 3 5 1020.0 1020.0 0.0
28/05:00pm 18.0 16.7 11.3 65 3.6 WSW 9 13 5 7 1019.7 1019.7 0.0
28/04:30pm 18.4 17.7 11.5 64 3.8 W 6 7 3 4 1019.4 1019.4 0.0
28/04:00pm 19.0 18.4 11.6 62 4.1 WSW 6 9 3 5 1019.4 1019.4 0.0
28/03:30pm 19.1 18.6 10.6 58 4.6 SW 4 7 2 4 1019.1 1019.1 0.0
28/03:00pm 19.0 18.7 11.6 62 4.1 WNW 4 7 2 4 1019.1 1019.1 0.0
28/02:30pm 19.2 19.4 11.7 62 4.1 NW 2 4 1 2 1019.1 1019.1 0.0
28/02:00pm 18.6 17.3 11.4 63 3.9 NW 9 11 5 6 1019.6 1019.6 0.0
28/01:30pm 18.6 17.3 11.4 63 3.9 NW 9 13 5 7 1019.9 1019.9 0.0
28/01:00pm 18.4 18.3 10.8 61 4.1 NW 2 4 1 2 1019.8 1019.8 0.0
28/12:30pm 19.1 18.2 11.4 61 4.2 NW 7 9 4 5 1020.7 1020.7 0.0
28/12:00pm 17.6 17.8 10.5 63 3.8 CALM 0 0 0 0 1020.9 1020.9 0.0
28/11:30am 17.3 17.3 9.7 61 4.0 CALM 0 0 0 0 1021.2 1021.2 0.0
28/11:00am 16.5 16.2 10.1 66 3.4 NE 2 4 1 2 1021.8 1021.8 0.0
28/10:30am 16.3 15.4 9.3 63 3.6 NE 4 4 2 2 1022.1 1022.1 0.0
28/10:00am 15.3 13.9 9.7 69 2.9 NE 7 11 4 6 1022.3 1022.3 0.0
28/09:30am 14.8 13.0 9.4 70 2.8 NE 9 11 5 6 1022.6 1022.6 0.0
28/09:00am 13.4 12.9 9.3 76 2.1 NE 2 4 1 2 1022.5 1022.5 0.0
28/08:30am 13.0 12.1 9.3 78 1.9 NE 4 6 2 3 1022.3 1022.3 0.0
28/08:00am 12.4 11.8 9.1 80 1.7 NE 2 6 1 3 1022.0 1022.0 0.0
28/07:30am 12.4 11.5 9.1 80 1.7 NE 4 6 2 3 1021.7 1021.7 0.0
28/07:00am 12.3 11.7 9.0 80 1.6 NE 2 6 1 3 1021.7 1021.7 0.0
28/06:30am 11.9 11.7 9.1 83 1.4 CALM 0 0 0 0 1022.0 1022.0 0.0
28/06:00am 11.9 11.6 8.7 81 1.6 CALM 0 0 0 0 1021.7 1021.7 0.0
28/05:30am 12.3 12.0 8.8 79 1.7 CALM 0 0 0 0 1021.4 1021.4 0.0
28/05:00am 12.6 11.5 8.5 76 2.0 NE 4 7 2 4 1021.1 1021.1 0.0
28/04:30am 12.9 12.3 8.8 76 2.1 NE 2 4 1 2 1021.5 1021.5 0.0
28/04:00am 12.9 12.6 8.6 75 2.1 CALM 0 0 0 0 1021.8 1021.8 0.0
28/03:30am 13.0 12.7 8.7 75 2.2 CALM 0 2 0 1 1021.8 1021.8 0.0
28/03:00am 12.9 12.0 9.2 78 1.9 NE 4 7 2 4 1021.7 1021.7 0.0
28/02:30am 12.2 11.9 8.5 78 1.8 CALM 0 6 0 3 1022.0 1022.0 0.0
28/02:00am 12.3 12.0 8.6 78 1.8 CALM 0 4 0 2 1022.6 1022.6 0.0
28/01:30am 12.4 12.1 8.5 77 1.9 CALM 0 2 0 1 1022.2 1022.2 0.0
28/01:00am 12.8 11.4 8.9 77 1.9 ENE 6 9 3 5 1022.2 1022.2 0.0
28/12:30am 12.9 11.7 9.5 80 1.7 ENE 6 7 3 4 1022.1 1022.1 0.0
28/12:00am 12.2 11.9 8.5 78 1.8 CALM 0 0 0 0 1022.7 1022.7 0.0
 
Date/Time
WST
Temp
°C
App
Temp
°C
Dew
Point
°C
Rel
Hum
%
Delta-T
°C
Wind Press
QNH
hPa
Press
MSL
hPa
Rain since
9am
mm
Dir  Spd
km/h
Gust
km/h
Spd
kts
Gust
kts
27/11:30pm 12.6 12.3 8.5 76 2.0 CALM 0 0 0 0 1023.1 1023.1 0.0
27/11:00pm 13.3 13.0 8.8 74 2.3 CALM 0 0 0 0 1023.1 1023.1 0.0
27/10:30pm 13.6 12.2 9.6 77 2.0 E 7 11 4 6 1022.6 1022.6 0.0
27/10:00pm 13.4 12.8 10.4 82 1.6 ESE 4 6 2 3 1023.5 1023.5 0.0
27/09:30pm 13.5 12.5 10.3 81 1.7 ESE 6 9 3 5 1023.6 1023.6 0.0
27/09:00pm 13.8 13.6 10.4 80 1.8 ESE 2 4 1 2 1024.0 1024.0 0.0
27/08:30pm 14.1 13.6 10.9 81 1.7 ESE 4 6 2 3 1024.2 1024.2 0.0
27/08:00pm 14.3 14.7 11.1 81 1.7 CALM 0 2 0 1 1024.4 1024.4 0.0
27/07:30pm 14.6 14.4 10.6 77 2.1 W 2 4 1 2 1023.8 1023.8 0.0
27/07:00pm 15.0 15.2 10.4 74 2.4 CALM 0 0 0 0 1023.6 1023.6 0.0
27/06:30pm 14.9 14.9 9.7 71 2.7 CALM 0 0 0 0 1023.5 1023.5 0.0
27/06:00pm 15.1 15.1 9.7 70 2.8 CALM 0 2 0 1 1023.8 1023.8 0.0
27/05:30pm 15.6 15.6 9.9 69 3.0 CALM 0 0 0 0 1023.4 1023.4 0.0
27/05:00pm 16.3 16.2 9.5 64 3.5 CALM 0 0 0 0 1022.8 1022.8 0.0
27/04:30pm 16.7 16.4 10.1 65 3.5 W 2 4 1 2 1023.1 1023.1 0.0
27/04:00pm 17.0 16.3 10.1 64 3.6 W 4 6 2 3 1023.3 1023.3 0.0
27/03:30pm 16.7 15.4 10.1 65 3.5 WNW 7 9 4 5 1023.3 1023.3 0.0
27/03:00pm 16.9 16.0 10.5 66 3.4 NW 6 6 3 3 1023.0 1023.0 0.0
27/02:30pm 16.9 16.0 11.2 69 3.1 NNW 7 11 4 6 1023.0 1023.0 0.0
27/02:00pm 17.3 16.6 11.3 68 3.2 N 6 7 3 4 1023.0 1023.0 0.0
27/01:30pm 16.8 15.7 10.6 67 3.3 N 7 9 4 5 1023.7 1023.7 0.0
27/01:00pm 17.0 15.5 10.4 65 3.5 N 9 11 5 6 1024.4 1024.4 0.0
27/12:30pm 16.6 14.6 10.0 65 3.5 NNE 11 15 6 8 1024.8 1024.8 0.0
27/12:00pm 16.2 13.7 9.6 65 3.4 NNE 13 17 7 9 1025.3 1025.3 0.0
27/11:30am 16.0 13.8 9.4 65 3.4 NNE 11 17 6 9 1025.7 1025.7 0.0
27/11:00am 15.3 12.3 9.4 68 3.0 NE 15 19 8 10 1026.0 1026.0 0.0
27/10:30am 14.4 11.4 9.2 71 2.7 NE 15 19 8 10 1026.5 1026.5 0.0
27/10:00am 14.3 12.5 9.3 72 2.5 NE 9 13 5 7 1026.8 1026.8 0.0
27/09:30am 12.6 10.3 9.1 79 1.8 NE 11 13 6 7 1027.0 1027.0 0.0
27/09:00am 11.4 10.2 9.5 88 0.9 ENE 6 11 3 6 1027.0 1027.0 0.0
27/08:30am 9.9 8.2 8.5 91 0.7 ENE 7 9 4 5 1026.9 1026.9 0.0
27/08:00am 9.4 7.8 8.2 92 0.6 ENE 6 9 3 5 1027.0 1027.0 0.0
27/07:30am 8.7 6.9 7.3 91 0.7 E 6 9 3 5 1026.8 1026.8 0.0
27/07:00am 8.9 7.5 7.4 90 0.7 ENE 4 7 2 4 1027.1 1027.1 0.0
27/06:30am 9.4 8.2 8.0 91 0.7 ENE 4 7 2 4 1027.2 1027.2 0.0
27/06:00am 9.6 8.8 8.0 90 0.8 E 2 4 1 2 1027.6 1027.6 0.0
27/05:30am 9.8 8.6 8.2 90 0.8 E 4 6 2 3 1027.3 1027.3 0.0
27/05:00am 9.5 8.3 7.9 90 0.8 E 4 7 2 4 1027.0 1027.0 0.0
27/04:30am 9.2 8.6 7.5 89 0.8 CALM 0 2 0 1 1026.7 1026.7 0.0
27/04:00am 9.3 7.9 7.4 88 0.9 E 4 7 2 4 1026.8 1026.8 0.0
27/03:30am 9.6 9.1 7.7 88 0.9 CALM 0 0 0 0 1027.1 1027.1 0.0
27/03:00am 9.9 8.7 8.0 88 0.9 E 4 7 2 4 1027.5 1027.5 0.0
27/02:30am 10.1 8.6 8.4 89 0.8 E 6 9 3 5 1027.3 1027.3 0.0
27/02:00am 9.7 8.5 8.1 90 0.8 ESE 4 6 2 3 1027.3 1027.3 0.0
27/01:30am 9.3 8.7 7.4 88 0.9 CALM 0 0 0 0 1027.6 1027.6 0.0
27/01:00am 9.6 8.7 7.7 88 0.9 ESE 2 2 1 1 1027.5 1027.5 0.0
27/12:30am 9.9 8.6 7.8 87 1.0 SE 4 4 2 2 1027.5 1027.5 0.0
27/12:00am 10.4 9.3 8.5 88 0.9 SE 4 6 2 3 1027.4 1027.4 0.0
 
Date/Time
WST
Temp
°C
App
Temp
°C
Dew
Point
°C
Rel
Hum
%
Delta-T
°C
Wind Press
QNH
hPa
Press
MSL
hPa
Rain since
9am
mm
Dir  Spd
km/h
Gust
km/h
Spd
kts
Gust
kts
26/11:30pm 10.5 9.4 8.4 87 1.0 SE 4 6 2 3 1027.5 1027.5 0.0
26/11:00pm 10.6 9.1 8.4 86 1.1 SE 6 6 3 3 1027.5 1027.5 0.0
26/10:30pm 11.3 9.9 8.9 85 1.2 SE 6 7 3 4 1027.6 1027.6 0.0
26/10:00pm 11.9 10.6 9.3 84 1.3 S 6 6 3 3 1027.9 1027.9 0.0
26/09:30pm 12.9 12.1 9.5 80 1.7 S 4 6 2 3 1028.1 1028.1 0.0
26/09:00pm 13.0 12.1 9.4 79 1.8 S 4 6 2 3 1028.3 1028.3 0.0
26/08:30pm 13.1 12.3 9.5 79 1.8 S 4 4 2 2 1028.4 1028.4 0.0
26/08:00pm 13.1 12.5 8.8 75 2.1 S 2 4 1 2 1028.2 1028.2 0.0
26/07:30pm 13.5 13.2 8.8 73 2.4 CALM 0 0 0 0 1028.1 1028.1 0.0
26/07:00pm 14.3 13.0 9.1 71 2.6 S 6 9 3 5 1027.8 1027.8 0.0
26/06:30pm 14.4 13.4 9.0 70 2.7 SSW 4 6 2 3 1027.6 1027.6 0.0
26/06:00pm 14.9 13.3 8.8 67 3.1 SSW 7 9 4 5 1027.4 1027.4 0.0
26/05:30pm 15.6 13.5 8.4 62 3.6 SSW 9 13 5 7 1027.2 1027.2 0.0
26/05:00pm 16.4 14.2 7.9 57 4.3 S 9 13 5 7 1027.1 1027.1 0.0
26/04:30pm 16.7 14.5 7.9 56 4.4 S 9 13 5 7 1027.1 1027.1 0.0
26/04:00pm 17.2 15.0 7.8 54 4.7 SSE 9 15 5 8 1026.9 1026.9 0.0
26/03:30pm 17.1 15.2 10.5 65 3.5 WSW 11 17 6 9 1027.1 1027.1 0.0
26/03:00pm 17.1 16.2 10.5 65 3.5 WSW 6 13 3 7 1027.2 1027.2 0.0
26/02:30pm 16.3 15.1 10.2 67 3.2 NW 7 9 4 5 1027.1 1027.1 0.0
26/02:00pm 16.9 15.5 8.8 59 4.1 SSE 6 7 3 4 1027.1 1027.1 0.0

Other Formats:

Comma delimited format used in spreadsheet applications
http://www.bom.gov.au/fwo/IDW60801/IDW60801.94605.axf

JavaScript Object Notation format (JSON) in row-major order
http://www.bom.gov.au/fwo/IDW60801/IDW60801.94605.json